Time;durP1;ratioP1;P1;durP2;ratioP2;P2;SDS_P1;SDS_P2;PMS_P1;PMS_P2;Temp;Humidity;BMP_temperature;BMP_pressure;BME280_temperature;BME280_humidity;BME280_pressure;Samples;Min_cycle;Max_cycle;Signal;HPM_P1;HPM_P2
2023/11/21 00:01:35;;;;;;;6.40;2.63;;;8.70;99.90;;;;;;2585602;54;20035;31
2023/11/21 00:04:08;;;;;;;6.93;3.03;;;8.70;99.90;;;;;;2585288;54;20306;31
2023/11/21 00:06:46;;;;;;;5.82;2.47;;;8.60;99.90;;;;;;2585435;54;20749;31
2023/11/21 00:09:20;;;;;;;8.07;3.97;;;8.60;99.90;;;;;;2585496;54;20033;31
2023/11/21 00:11:54;;;;;;;9.55;2.63;;;8.60;99.90;;;;;;2585406;54;20081;31
2023/11/21 00:14:27;;;;;;;5.30;3.00;;;8.60;99.90;;;;;;2585435;54;20805;31
2023/11/21 00:17:02;;;;;;;7.65;2.25;;;8.60;99.90;;;;;;2585436;54;20959;31
2023/11/21 00:19:35;;;;;;;6.63;2.80;;;8.60;99.90;;;;;;2585269;54;20108;31
2023/11/21 00:22:09;;;;;;;6.55;2.30;;;8.60;99.90;;;;;;2585516;54;19935;31
2023/11/21 00:24:40;;;;;;;6.70;2.80;;;8.60;99.90;;;;;;2585012;54;20030;31
2023/11/21 00:27:14;;;;;;;6.00;2.17;;;8.60;99.90;;;;;;2585165;54;20962;31
2023/11/21 00:29:49;;;;;;;7.00;2.15;;;8.50;99.90;;;;;;2585192;54;20879;31
2023/11/21 00:32:25;;;;;;;4.35;1.75;;;8.50;99.90;;;;;;2585528;54;20909;31
2023/11/21 00:34:59;;;;;;;5.40;1.50;;;8.50;99.90;;;;;;2584929;54;20050;31
2023/11/21 00:37:35;;;;;;;5.40;2.50;;;8.50;99.90;;;;;;2585507;54;20043;31
2023/11/21 00:40:15;;;;;;;8.15;2.20;;;8.40;99.90;;;;;;2604174;46;21874;31
2023/11/21 00:42:48;;;;;;;;;;;8.50;99.90;;;;;;2585598;54;20016;31
2023/11/21 00:45:22;;;;;;;7.40;1.70;;;8.50;99.90;;;;;;2585379;54;19934;31
2023/11/21 00:48:00;;;;;;;5.55;1.80;;;8.50;99.90;;;;;;2585446;54;20960;31
2023/11/21 00:50:34;;;;;;;5.40;1.87;;;8.50;99.90;;;;;;2585385;54;21226;31
2023/11/21 00:53:07;;;;;;;5.90;1.90;;;8.40;99.90;;;;;;2585603;54;20027;31
2023/11/21 00:55:41;;;;;;;7.55;2.10;;;8.50;99.90;;;;;;2584817;54;20033;31
2023/11/21 00:58:14;;;;;;;6.40;2.10;;;8.40;99.90;;;;;;2585487;54;20029;31
2023/11/21 01:00:48;;;;;;;11.83;2.30;;;8.40;99.90;;;;;;2585140;54;20938;31
2023/11/21 01:03:25;;;;;;;9.10;2.08;;;8.40;99.90;;;;;;2585310;54;20030;31
2023/11/21 01:05:57;;;;;;;;;;;8.40;99.90;;;;;;2603425;46;20940;31
2023/11/21 01:08:31;;;;;;;5.00;2.15;;;8.40;99.90;;;;;;2585465;54;20646;31
2023/11/21 01:11:04;;;;;;;5.00;2.20;;;8.40;99.90;;;;;;2584944;54;20076;31
2023/11/21 01:13:37;;;;;;;6.90;1.90;;;8.40;99.90;;;;;;2585002;54;20967;31
2023/11/21 01:16:11;;;;;;;7.47;2.43;;;8.40;99.90;;;;;;2585342;54;20938;31
2023/11/21 01:18:48;;;;;;;6.07;1.87;;;8.40;99.90;;;;;;2603530;46;20971;31
2023/11/21 01:21:20;;;;;;;;;;;8.40;99.90;;;;;;2585426;54;20053;31
2023/11/21 01:23:51;;;;;;;3.77;1.97;;;8.30;99.90;;;;;;2585427;54;20811;31
2023/11/21 01:26:24;;;;;;;5.47;2.33;;;8.30;99.90;;;;;;2585214;54;20840;31
2023/11/21 01:28:57;;;;;;;7.95;2.50;;;8.30;99.90;;;;;;2584838;54;20026;31
2023/11/21 01:31:30;;;;;;;4.38;2.00;;;8.30;99.90;;;;;;2585269;54;20076;31
2023/11/21 01:34:07;;;;;;;5.90;1.73;;;8.40;99.90;;;;;;2585259;54;20877;31
2023/11/21 01:36:41;;;;;;;6.40;2.10;;;8.40;99.90;;;;;;2603710;46;20975;31
2023/11/21 01:39:23;;;;;;;4.53;1.93;;;8.40;99.90;;;;;;2585163;54;20769;31
2023/11/21 01:41:55;;;;;;;5.07;2.13;;;8.40;99.90;;;;;;2584985;54;20895;31
2023/11/21 01:44:29;;;;;;;6.10;2.42;;;8.40;99.90;;;;;;2584876;54;20932;31
2023/11/21 01:47:04;;;;;;;5.65;2.38;;;8.40;99.90;;;;;;2585072;54;20038;31
2023/11/21 01:49:42;;;;;;;8.13;2.13;;;8.30;99.90;;;;;;2585124;54;20737;31
2023/11/21 01:52:15;;;;;;;8.20;1.85;;;8.40;99.90;;;;;;2585091;54;19934;31
2023/11/21 01:54:49;;;;;;;4.80;1.60;;;8.40;99.90;;;;;;2603906;46;20049;31
2023/11/21 01:57:24;;;;;;;4.95;2.25;;;8.40;99.90;;;;;;2585136;54;19934;31
2023/11/21 01:59:58;;;;;;;5.22;2.00;;;8.40;99.90;;;;;;2584948;54;20990;31
2023/11/21 02:02:31;;;;;;;4.07;1.85;;;8.40;99.90;;;;;;2584916;54;20907;31
2023/11/21 02:05:08;;;;;;;5.03;1.52;;;8.40;99.90;;;;;;2604034;46;20144;31
2023/11/21 02:07:41;;;;;;;3.13;1.58;;;8.40;99.90;;;;;;2585236;54;20896;31
2023/11/21 02:10:16;;;;;;;2.85;1.77;;;8.40;99.90;;;;;;2584938;54;20088;31
2023/11/21 02:12:51;;;;;;;3.80;1.83;;;8.40;99.90;;;;;;2585163;54;20030;31
2023/11/21 02:15:28;;;;;;;4.60;1.70;;;8.30;99.90;;;;;;2584898;54;20076;31
2023/11/21 02:18:02;;;;;;;6.50;1.70;;;8.30;99.90;;;;;;2585069;54;20902;31
2023/11/21 02:20:42;;;;;;;5.65;1.70;;;8.40;99.90;;;;;;2585357;54;20987;31
2023/11/21 02:23:18;;;;;;;4.57;1.50;;;8.30;99.90;;;;;;2585444;54;21116;31
2023/11/21 02:25:53;;;;;;;5.95;2.00;;;8.30;99.90;;;;;;2584965;54;20213;31
2023/11/21 02:28:28;;;;;;;2.83;1.45;;;8.30;99.90;;;;;;2585266;54;20057;31
2023/11/21 02:31:04;;;;;;;7.05;1.80;;;8.30;99.90;;;;;;2584904;54;20757;31
2023/11/21 02:33:39;;;;;;;;;;;8.30;99.90;;;;;;2585130;54;20023;31
2023/11/21 02:36:14;;;;;;;4.10;1.75;;;8.20;99.90;;;;;;2585028;54;20679;31
2023/11/21 02:38:51;;;;;;;6.15;1.42;;;8.30;99.90;;;;;;2585261;54;19935;31
2023/11/21 02:41:25;;;;;;;3.97;1.63;;;8.20;99.90;;;;;;2585035;54;20026;31
2023/11/21 02:43:58;;;;;;;3.65;1.65;;;8.20;99.90;;;;;;2584805;54;21035;31
2023/11/21 02:46:33;;;;;;;4.32;1.77;;;8.20;99.90;;;;;;2603401;46;20027;31
2023/11/21 02:49:06;;;;;;;7.72;2.47;;;8.20;99.90;;;;;;2585066;54;21027;31
2023/11/21 02:51:40;;;;;;;5.32;2.10;;;8.20;99.90;;;;;;2585187;54;20022;31
2023/11/21 02:54:16;;;;;;;5.57;2.80;;;8.20;99.90;;;;;;2585293;54;20030;31
2023/11/21 02:56:53;;;;;;;8.37;2.43;;;8.20;99.90;;;;;;2585097;54;20922;31
2023/11/21 02:59:29;;;;;;;5.35;2.03;;;8.30;99.90;;;;;;2584958;54;20038;31
2023/11/21 03:02:03;;;;;;;5.45;2.55;;;8.20;99.90;;;;;;2603192;46;22029;31
2023/11/21 03:04:37;;;;;;;6.05;2.30;;;8.20;99.90;;;;;;2584516;54;20794;31
2023/11/21 03:07:10;;;;;;;8.70;2.65;;;8.20;99.90;;;;;;2584821;54;20026;31
2023/11/21 03:09:48;;;;;;;6.80;2.77;;;8.20;99.90;;;;;;2584607;54;20037;31
2023/11/21 03:12:22;;;;;;;7.00;2.83;;;8.20;99.90;;;;;;2584778;54;20934;31
2023/11/21 03:14:56;;;;;;;7.70;2.75;;;8.20;99.90;;;;;;2584411;54;20916;31
2023/11/21 03:17:30;;;;;;;6.57;2.77;;;8.20;99.90;;;;;;2584624;54;21020;31
2023/11/21 03:20:10;;;;;;;8.33;2.80;;;8.20;99.90;;;;;;2585234;54;20038;31
2023/11/21 03:22:44;;;;;;;8.18;2.72;;;8.20;99.90;;;;;;2584838;54;21074;31
2023/11/21 03:25:23;;;;;;;7.90;3.10;;;8.20;99.90;;;;;;2584881;54;20034;31
2023/11/21 03:27:58;;;;;;;6.90;3.15;;;8.20;99.90;;;;;;2584637;54;20825;31
2023/11/21 03:30:32;;;;;;;8.90;3.20;;;8.20;99.90;;;;;;2584698;54;20879;31
2023/11/21 03:33:05;;;;;;;7.80;3.07;;;8.20;99.90;;;;;;2585107;54;20034;31
2023/11/21 03:35:41;;;;;;;5.70;3.00;;;8.20;99.90;;;;;;2584975;54;20754;31
2023/11/21 03:38:15;;;;;;;7.80;3.30;;;8.20;99.90;;;;;;2584638;54;21047;31
2023/11/21 03:40:51;;;;;;;10.60;3.60;;;8.20;99.90;;;;;;2584739;54;20943;31
2023/11/21 03:43:26;;;;;;;8.93;4.00;;;8.20;99.90;;;;;;2584714;54;20113;31
2023/11/21 03:46:00;;;;;;;7.28;3.67;;;8.20;99.90;;;;;;2584549;54;20034;31
2023/11/21 03:48:35;;;;;;;11.13;4.28;;;8.20;99.90;;;;;;2584577;54;20843;31
2023/11/21 03:51:09;;;;;;;9.90;3.50;;;8.20;99.90;;;;;;2584581;54;20033;31
2023/11/21 03:53:43;;;;;;;6.85;3.20;;;8.20;99.90;;;;;;2584389;54;20771;31
2023/11/21 03:56:21;;;;;;;8.45;4.13;;;8.20;99.90;;;;;;2584788;54;20912;31
2023/11/21 03:58:55;;;;;;;14.48;4.40;;;8.20;99.90;;;;;;2603114;47;20026;31
2023/11/21 04:01:28;;;;;;;10.07;3.40;;;8.20;99.90;;;;;;2584667;54;20026;31
2023/11/21 04:04:01;;;;;;;7.18;4.03;;;8.20;99.90;;;;;;2584600;54;20157;31
2023/11/21 04:06:35;;;;;;;11.00;4.47;;;8.20;99.90;;;;;;2584729;54;20907;31
2023/11/21 04:09:09;;;;;;;10.05;3.90;;;8.20;99.90;;;;;;2584543;54;20841;31
2023/11/21 04:11:46;;;;;;;7.40;3.80;;;8.20;99.90;;;;;;2603271;47;20942;31
2023/11/21 04:14:21;;;;;;;8.70;4.15;;;8.20;99.90;;;;;;2602847;47;20983;31
2023/11/21 04:16:54;;;;;;;12.40;4.10;;;8.20;99.90;;;;;;2584285;54;20031;31
2023/11/21 04:19:27;;;;;;;7.50;4.03;;;8.20;99.90;;;;;;2584398;54;20031;31
2023/11/21 04:22:00;;;;;;;10.10;3.58;;;8.20;99.90;;;;;;2584667;54;20928;31
2023/11/21 04:24:34;;;;;;;8.85;3.35;;;8.20;99.90;;;;;;2584819;54;21937;31
2023/11/21 04:27:13;;;;;;;8.80;4.10;;;8.20;99.90;;;;;;2603339;47;20031;31
2023/11/21 04:29:47;;;;;;;6.60;3.43;;;8.20;99.90;;;;;;2603030;47;20865;31
2023/11/21 04:32:20;;;;;;;5.45;3.45;;;8.20;99.90;;;;;;2584592;54;20092;31
2023/11/21 04:34:53;;;;;;;5.30;2.70;;;8.20;99.90;;;;;;2584572;54;19941;31
2023/11/21 04:37:27;;;;;;;6.45;3.08;;;8.20;99.90;;;;;;2584767;54;20077;31
2023/11/21 04:40:06;;;;;;;5.60;3.00;;;8.20;99.90;;;;;;2584862;54;21042;31
2023/11/21 04:42:42;;;;;;;6.43;2.80;;;8.20;99.90;;;;;;2585295;54;20840;31
2023/11/21 04:45:15;;;;;;;8.00;2.77;;;8.20;99.90;;;;;;2585464;54;20924;31
2023/11/21 04:47:48;;;;;;;4.43;2.38;;;8.20;99.90;;;;;;2585501;54;20027;31
2023/11/21 04:50:21;;;;;;;5.55;2.40;;;8.20;99.90;;;;;;2585106;54;20844;31
2023/11/21 04:52:54;;;;;;;6.45;2.13;;;8.20;99.90;;;;;;2584965;54;20032;31
2023/11/21 04:55:28;;;;;;;6.10;2.13;;;8.20;99.90;;;;;;2585469;54;20784;31
2023/11/21 04:58:04;;;;;;;5.97;2.03;;;8.20;99.90;;;;;;2604026;46;20042;31
2023/11/21 05:00:39;;;;;;;4.95;1.88;;;8.10;99.90;;;;;;2585170;54;20965;31
2023/11/21 05:03:15;;;;;;;5.43;2.08;;;8.10;99.90;;;;;;2603756;46;21951;31
2023/11/21 05:05:50;;;;;;;6.60;2.10;;;8.10;99.90;;;;;;2585217;54;20796;31
2023/11/21 05:08:24;;;;;;;5.20;1.90;;;8.10;99.90;;;;;;2585342;54;20984;31
2023/11/21 05:10:58;;;;;;;5.77;2.33;;;8.10;99.90;;;;;;2585175;54;20945;31
2023/11/21 05:13:34;;;;;;;7.90;2.00;;;8.10;99.90;;;;;;2683383;39;22466;31
2023/11/21 05:16:09;;;;;;;6.55;2.13;;;8.10;99.90;;;;;;2585587;54;20983;31
2023/11/21 05:18:44;;;;;;;7.70;2.60;;;8.10;99.90;;;;;;2604208;46;20115;31
2023/11/21 05:21:20;;;;;;;6.20;2.20;;;8.10;99.90;;;;;;2585329;54;20943;31
2023/11/21 05:23:54;;;;;;;7.70;2.50;;;8.10;99.90;;;;;;2585039;54;20026;31
2023/11/21 05:26:28;;;;;;;6.30;3.00;;;8.10;99.90;;;;;;2585377;54;20920;31
2023/11/21 05:29:04;;;;;;;5.70;2.70;;;8.10;99.90;;;;;;2603423;46;20085;31
2023/11/21 05:31:39;;;;;;;7.27;3.03;;;8.10;99.90;;;;;;2585139;54;20293;31
2023/11/21 05:34:14;;;;;;;5.33;2.87;;;8.10;99.90;;;;;;2585096;54;20925;31
2023/11/21 05:36:51;;;;;;;7.80;2.88;;;8.10;99.90;;;;;;2585111;54;20026;31
2023/11/21 05:39:25;;;;;;;5.07;2.80;;;8.10;99.90;;;;;;2585385;54;20031;31
2023/11/21 05:42:00;;;;;;;4.90;3.00;;;8.10;99.90;;;;;;2585189;54;20990;31
2023/11/21 05:44:36;;;;;;;5.60;2.70;;;8.10;99.90;;;;;;2585444;54;20770;31
2023/11/21 05:47:10;;;;;;;8.15;3.95;;;8.10;99.90;;;;;;2585105;54;20863;31
2023/11/21 05:49:45;;;;;;;5.67;2.87;;;8.20;99.90;;;;;;2603968;46;20099;31
2023/11/21 05:52:20;;;;;;;6.70;3.10;;;8.20;99.90;;;;;;2584636;54;21255;31
2023/11/21 05:54:53;;;;;;;7.63;2.78;;;8.20;99.90;;;;;;2603965;46;20048;31
2023/11/21 05:57:28;;;;;;;6.43;2.67;;;8.20;99.90;;;;;;2585043;54;20968;31
2023/11/21 06:00:10;;;;;;;4.77;3.00;;;8.20;99.90;;;;;;2585068;54;20080;31
2023/11/21 06:02:46;;;;;;;7.50;3.55;;;8.20;99.90;;;;;;2585063;54;20053;31
2023/11/21 06:05:23;;;;;;;7.55;3.65;;;8.20;99.90;;;;;;2603431;46;20824;31
2023/11/21 06:07:58;;;;;;;9.20;3.57;;;8.10;99.90;;;;;;2585170;54;20053;31
2023/11/21 06:10:34;;;;;;;7.32;3.35;;;8.10;99.90;;;;;;2585025;54;20168;31
2023/11/21 06:13:10;;;;;;;7.82;3.33;;;8.10;99.90;;;;;;2585280;54;20027;31
2023/11/21 06:15:48;;;;;;;8.33;3.67;;;8.20;99.90;;;;;;2584880;54;20961;31
2023/11/21 06:18:26;;;;;;;10.35;4.53;;;8.10;99.90;;;;;;2584895;54;20120;31
2023/11/21 06:21:01;;;;;;;7.47;4.30;;;8.10;99.90;;;;;;2585000;54;19934;31
2023/11/21 06:23:52;;;;;;;9.07;3.80;;;8.10;99.90;;;;;;2585051;54;20046;31
2023/11/21 06:26:26;;;;;;;9.18;3.75;;;8.10;99.90;;;;;;2584849;54;20085;31
2023/11/21 06:29:02;;;;;;;5.95;3.65;;;8.10;99.90;;;;;;2585260;54;20044;31
2023/11/21 06:31:38;;;;;;;6.97;3.80;;;8.10;99.90;;;;;;2584953;54;20057;31
2023/11/21 06:34:12;;;;;;;7.90;3.40;;;8.10;99.90;;;;;;2585077;54;20031;31
2023/11/21 06:36:45;;;;;;;7.40;3.53;;;8.10;99.90;;;;;;2603271;46;20959;31
2023/11/21 06:39:22;;;;;;;7.80;3.60;;;8.10;99.90;;;;;;2585223;54;20030;31
2023/11/21 06:41:56;;;;;;;6.55;3.55;;;8.10;99.90;;;;;;2585102;54;20831;31
2023/11/21 06:44:30;;;;;;;6.97;3.80;;;8.10;99.90;;;;;;2585163;54;20901;31
2023/11/21 06:47:07;;;;;;;7.40;4.00;;;8.10;99.90;;;;;;2585042;54;21100;31
2023/11/21 06:49:42;;;;;;;8.40;3.90;;;8.10;99.90;;;;;;2603938;46;20889;31
2023/11/21 06:52:16;;;;;;;6.00;3.90;;;8.10;99.90;;;;;;2585140;54;20771;31
2023/11/21 06:54:50;;;;;;;8.27;3.77;;;8.10;99.90;;;;;;2584768;54;20768;31
2023/11/21 06:57:23;;;;;;;8.27;3.85;;;8.10;99.90;;;;;;2585368;54;20081;31
2023/11/21 06:59:57;;;;;;;6.68;3.60;;;8.10;99.90;;;;;;2584990;54;20112;31
2023/11/21 07:02:34;;;;;;;10.68;3.97;;;8.10;99.90;;;;;;2584725;54;20034;31
2023/11/21 07:05:09;;;;;;;6.13;3.70;;;8.10;99.90;;;;;;2584906;54;20847;31
2023/11/21 07:07:43;;;;;;;7.50;4.13;;;8.10;99.90;;;;;;2584979;54;20038;31
2023/11/21 07:10:18;;;;;;;7.97;3.80;;;8.10;99.90;;;;;;2585253;54;22101;31
2023/11/21 07:12:51;;;;;;;9.97;3.67;;;8.10;99.90;;;;;;2584722;54;20031;31
2023/11/21 07:15:25;;;;;;;8.35;4.35;;;8.10;99.90;;;;;;2584632;54;21122;31
2023/11/21 07:18:01;;;;;;;10.82;4.85;;;8.10;99.90;;;;;;2585001;54;20136;31
2023/11/21 07:20:36;;;;;;;10.80;4.03;;;8.10;99.90;;;;;;2584939;54;20054;31
2023/11/21 07:23:10;;;;;;;8.85;4.80;;;8.10;99.90;;;;;;2584552;54;20089;31
2023/11/21 07:25:44;;;;;;;6.50;4.00;;;8.20;99.90;;;;;;2584844;54;20035;31
2023/11/21 07:28:17;;;;;;;8.30;4.25;;;8.10;99.90;;;;;;2585020;54;20956;31
2023/11/21 07:30:52;;;;;;;10.88;5.03;;;8.10;99.90;;;;;;2584760;54;21004;31
2023/11/21 07:33:28;;;;;;;8.82;4.30;;;8.20;99.90;;;;;;2603160;47;21910;31
2023/11/21 07:36:02;;;;;;;6.13;3.90;;;8.20;99.90;;;;;;2584795;54;20786;31
2023/11/21 07:38:36;;;;;;;5.83;4.10;;;8.20;99.90;;;;;;2584780;54;19941;31
2023/11/21 07:41:09;;;;;;;7.73;4.27;;;8.20;99.90;;;;;;2584603;54;21073;31
2023/11/21 07:43:58;;;;;;;10.23;4.25;;;8.20;99.90;;;;;;2603271;47;20036;31
2023/11/21 07:46:31;;;;;;;12.15;4.60;;;8.20;99.90;;;;;;2585020;54;20085;31
2023/11/21 07:49:07;;;;;;;6.43;4.20;;;8.20;99.90;;;;;;2584648;54;21006;31
2023/11/21 07:51:40;;;;;;;;;;;8.20;99.90;;;;;;2585060;54;20822;31
2023/11/21 07:54:15;;;;;;;8.77;4.68;;;8.20;99.90;;;;;;2603146;47;19934;31
2023/11/21 07:56:49;;;;;;;;;;;8.20;99.90;;;;;;2584758;54;20769;31
2023/11/21 07:59:23;;;;;;;9.10;3.90;;;8.20;99.90;;;;;;2603146;47;19942;31
2023/11/21 08:01:58;;;;;;;12.80;4.10;;;8.20;99.90;;;;;;2584521;54;20109;31
2023/11/21 08:04:36;;;;;;;8.50;3.77;;;8.20;99.90;;;;;;2584323;54;19935;31
2023/11/21 08:07:11;;;;;;;8.30;4.35;;;8.20;99.90;;;;;;2584667;54;20073;31
2023/11/21 08:09:47;;;;;;;11.20;3.90;;;8.30;99.90;;;;;;2584738;54;20077;31
2023/11/21 08:12:26;;;;;;;8.50;4.90;;;8.30;99.90;;;;;;2584539;54;21093;31
2023/11/21 08:15:02;;;;;;;8.75;4.40;;;8.40;99.90;;;;;;2585207;54;21007;31
2023/11/21 08:17:37;;;;;;;8.45;4.55;;;8.40;99.90;;;;;;2585241;54;20030;31
2023/11/21 08:20:16;;;;;;;11.32;4.28;;;8.40;99.90;;;;;;2585361;54;20037;31
2023/11/21 08:22:52;;;;;;;9.63;3.77;;;8.40;99.90;;;;;;2585648;54;20149;31
2023/11/21 08:25:25;;;;;;;8.85;4.20;;;8.40;99.90;;;;;;2585171;54;20289;31
2023/11/21 08:27:59;;;;;;;11.93;4.63;;;8.50;99.90;;;;;;2585701;54;20053;31
2023/11/21 08:30:34;;;;;;;10.48;3.97;;;8.40;99.90;;;;;;2585435;54;20782;31
2023/11/21 08:33:08;;;;;;;12.65;4.70;;;8.40;99.90;;;;;;2604486;46;20872;31
2023/11/21 08:35:45;;;;;;;9.25;3.85;;;8.40;99.90;;;;;;2585315;54;20073;31
2023/11/21 08:38:19;;;;;;;8.90;3.80;;;8.50;99.90;;;;;;2603971;46;20945;31
2023/11/21 08:40:54;;;;;;;10.80;3.80;;;8.40;99.90;;;;;;2585358;54;20736;31
2023/11/21 08:43:27;;;;;;;13.32;3.85;;;8.40;99.90;;;;;;2585554;54;20754;31
2023/11/21 08:46:03;;;;;;;11.40;4.40;;;8.40;99.90;;;;;;2585477;54;20900;31
2023/11/21 08:48:38;;;;;;;10.45;4.20;;;8.40;99.90;;;;;;2585276;54;20925;31
2023/11/21 08:51:14;;;;;;;11.70;4.22;;;8.50;99.90;;;;;;2585239;54;21007;31
2023/11/21 08:53:48;;;;;;;9.03;3.83;;;8.50;99.90;;;;;;2585371;54;20134;31
2023/11/21 08:56:21;;;;;;;10.65;4.57;;;8.50;99.90;;;;;;2603468;46;21217;31
2023/11/21 08:58:55;;;;;;;7.40;4.35;;;8.60;99.90;;;;;;2603876;46;20026;31
2023/11/21 09:01:28;;;;;;;9.65;4.30;;;8.70;99.90;;;;;;2585484;54;20918;31
2023/11/21 09:04:04;;;;;;;12.50;5.50;;;8.80;99.90;;;;;;2585314;54;20053;31
2023/11/21 09:06:40;;;;;;;10.70;5.00;;;8.90;99.90;;;;;;2604089;46;20057;31
2023/11/21 09:09:14;;;;;;;12.27;6.00;;;9.00;99.90;;;;;;2603742;46;20826;31
2023/11/21 09:11:49;;;;;;;11.50;5.00;;;9.10;99.90;;;;;;2585210;54;20927;31
2023/11/21 09:14:23;;;;;;;;;;;9.20;99.90;;;;;;2585563;54;20037;31
2023/11/21 09:16:57;;;;;;;7.30;3.50;;;9.20;99.90;;;;;;2585474;54;19934;31
2023/11/21 09:19:31;;;;;;;9.00;4.33;;;9.20;99.90;;;;;;2585205;54;20884;31
2023/11/21 09:22:07;;;;;;;12.00;4.50;;;9.20;99.90;;;;;;2603884;46;20030;31
2023/11/21 09:24:40;;;;;;;;;;;9.30;99.90;;;;;;2585551;54;20912;31
2023/11/21 09:27:15;;;;;;;8.27;3.88;;;9.30;99.90;;;;;;2585061;54;19990;31
2023/11/21 09:29:49;;;;;;;10.35;4.05;;;9.30;99.90;;;;;;2585210;54;19961;31
2023/11/21 09:32:23;;;;;;;8.85;3.80;;;9.40;99.90;;;;;;2585435;54;20026;31
2023/11/21 09:35:00;;;;;;;7.93;4.57;;;9.40;99.90;;;;;;2585036;54;20860;31
2023/11/21 09:37:37;;;;;;;12.07;4.77;;;9.50;99.90;;;;;;2585088;54;20925;31
2023/11/21 09:40:16;;;;;;;6.35;4.15;;;9.50;99.90;;;;;;2603583;46;20764;31
2023/11/21 09:42:54;;;;;;;9.52;3.65;;;9.50;99.90;;;;;;2585269;54;20057;31
2023/11/21 09:45:34;;;;;;;6.47;3.08;;;9.50;99.90;;;;;;2585202;54;20089;31
2023/11/21 09:48:08;;;;;;;9.20;4.60;;;9.50;99.90;;;;;;2603669;46;20033;31
2023/11/21 09:50:42;;;;;;;8.73;4.95;;;9.50;99.90;;;;;;2584921;54;20046;31
2023/11/21 09:53:20;;;;;;;6.70;4.00;;;9.50;99.90;;;;;;2584693;54;20033;31
2023/11/21 09:55:56;;;;;;;7.30;3.30;;;9.50;99.90;;;;;;2584996;54;20031;31
2023/11/21 09:58:30;;;;;;;8.30;4.50;;;9.50;99.90;;;;;;2584932;54;21022;31
2023/11/21 10:01:04;;;;;;;7.95;4.57;;;9.50;99.90;;;;;;2682957;39;22482;31
2023/11/21 10:03:41;;;;;;;11.20;4.50;;;9.50;99.90;;;;;;2585048;54;20056;31
2023/11/21 10:06:17;;;;;;;6.95;3.47;;;9.60;99.90;;;;;;2584536;54;20054;31
2023/11/21 10:08:56;;;;;;;8.83;4.77;;;9.50;99.90;;;;;;2585102;54;20806;31
2023/11/21 10:11:31;;;;;;;17.48;8.50;;;9.50;99.90;;;;;;2585110;54;20034;31
2023/11/21 10:14:06;;;;;;;22.65;11.30;;;9.40;99.90;;;;;;2603628;46;20027;31
2023/11/21 10:16:41;;;;;;;23.70;11.87;;;9.30;99.90;;;;;;2585223;54;20026;31
2023/11/21 10:19:17;;;;;;;29.70;13.93;;;9.20;99.90;;;;;;2603435;46;20241;31
2023/11/21 10:21:51;;;;;;;22.95;12.05;;;9.10;99.90;;;;;;2584848;54;20929;31
2023/11/21 10:24:29;;;;;;;24.80;14.10;;;9.00;99.90;;;;;;2585087;54;20073;31
2023/11/21 10:27:14;;;;;;;23.70;12.43;;;8.90;99.90;;;;;;2584818;54;20860;31
2023/11/21 10:29:47;;;;;;;24.75;12.07;;;8.90;99.90;;;;;;2585052;54;20976;31
2023/11/21 10:32:21;;;;;;;27.30;15.43;;;8.80;99.90;;;;;;2585009;54;20939;31
2023/11/21 10:35:02;;;;;;;24.30;13.80;;;8.70;99.90;;;;;;2584715;54;20030;31
2023/11/21 10:37:35;;;;;;;31.77;14.60;;;8.70;99.90;;;;;;2603448;46;22066;31
2023/11/21 10:40:13;;;;;;;31.15;13.80;;;8.60;99.90;;;;;;2584900;54;20151;31
2023/11/21 10:42:47;;;;;;;33.90;14.20;;;8.60;99.90;;;;;;2603303;46;20022;31
2023/11/21 10:45:22;;;;;;;26.75;12.80;;;8.60;99.90;;;;;;2603510;46;20089;31
2023/11/21 10:47:57;;;;;;;25.83;12.82;;;8.60;99.90;;;;;;2584904;54;20026;31
2023/11/21 10:50:31;;;;;;;26.30;13.30;;;8.60;99.90;;;;;;2584603;54;20086;31
2023/11/21 10:53:05;;;;;;;26.27;14.00;;;8.60;99.90;;;;;;2683371;39;22418;31
2023/11/21 10:55:41;;;;;;;24.80;13.60;;;8.60;99.90;;;;;;2585021;54;21055;31
2023/11/21 10:58:17;;;;;;;24.55;12.73;;;8.60;99.90;;;;;;2584867;54;20118;31
2023/11/21 11:00:51;;;;;;;26.13;13.65;;;8.60;99.90;;;;;;2584520;54;20880;31
2023/11/21 11:03:27;;;;;;;23.85;12.20;;;8.60;99.90;;;;;;2584872;54;20032;31
2023/11/21 11:06:00;;;;;;;24.70;12.75;;;8.60;99.90;;;;;;2584842;54;20048;31
2023/11/21 11:08:36;;;;;;;24.60;13.77;;;8.60;99.90;;;;;;2584891;54;21008;31
2023/11/21 11:11:14;;;;;;;16.80;10.15;;;8.60;99.90;;;;;;2584560;54;20974;31
2023/11/21 11:13:50;;;;;;;24.00;12.45;;;8.50;99.90;;;;;;2584763;54;20956;31
2023/11/21 11:16:25;;;;;;;21.35;11.93;;;8.40;99.90;;;;;;2584586;54;20022;31
2023/11/21 11:19:00;;;;;;;23.55;12.05;;;8.30;99.90;;;;;;2603245;46;20120;31
2023/11/21 11:21:39;;;;;;;26.87;12.87;;;8.20;99.90;;;;;;2584933;54;20910;31
2023/11/21 11:24:32;;;;;;;26.30;12.70;;;8.10;99.90;;;;;;2584652;54;20267;31
2023/11/21 11:27:16;;;;;;;27.00;12.95;;;;;;;;;;2584846;54;20047;31
2023/11/21 11:29:50;;;;;;;25.20;12.93;;;;;;;;;;2588297;54;20026;-75
2023/11/21 11:32:25;;;;;;;28.70;12.30;;;;;;;;;;2584924;54;20022;31
2023/11/21 11:35:04;;;;;;;20.87;10.97;;;7.90;99.90;;;;;;2586915;54;20903;-79
2023/11/21 11:37:41;;;;;;;23.63;11.60;;;7.90;99.90;;;;;;2584529;54;20907;31
2023/11/21 11:40:16;;;;;;;29.07;12.57;;;7.70;99.90;;;;;;2584958;54;20870;31
2023/11/21 11:43:04;;;;;;;25.45;11.85;;;7.60;99.90;;;;;;2585069;54;20797;31
2023/11/21 11:45:41;;;;;;;23.75;11.10;;;7.60;99.90;;;;;;2584811;54;20030;31
2023/11/21 11:48:17;;;;;;;19.70;10.30;;;;;;;;;;2584845;54;20910;31
2023/11/21 11:51:08;;;;;;;24.67;12.20;;;;;;;;;;2585499;54;20942;31
2023/11/21 11:53:42;;;;;;;20.55;10.95;;;;;;;;;;2585237;54;20027;31
2023/11/21 11:56:33;;;;;;;25.55;12.90;;;;;;;;;;2585769;54;20949;31
2023/11/21 11:59:09;;;;;;;26.45;13.25;;;;;;;;;;2603982;46;20921;31
2023/11/21 12:01:43;;;;;;;35.50;21.00;;;;;;;;;;2683013;39;21484;31
2023/11/21 12:04:31;;;;;;;24.00;12.20;;;;;;;;;;2585671;54;20961;31
2023/11/21 12:07:07;;;;;;;14.80;8.32;;;;;;;;;;2585473;54;20081;31
2023/11/21 12:09:47;;;;;;;15.80;8.55;;;;;;;;;;2604155;46;20053;31
2023/11/21 12:12:22;;;;;;;15.30;7.32;;;;;;;;;;2604417;46;20770;31
2023/11/21 12:14:59;;;;;;;15.32;7.13;;;;;;;;;;2585555;54;20770;31
2023/11/21 12:17:33;;;;;;;19.20;9.60;;;;;;;;;;2585631;54;20926;31
2023/11/21 12:20:17;;;;;;;16.90;8.23;;;;;;;;;;2585588;54;20042;31
2023/11/21 12:22:52;;;;;;;12.87;7.37;;;6.90;99.90;;;;;;2585484;54;20934;31
2023/11/21 12:25:28;;;;;;;23.55;13.07;;;6.80;99.90;;;;;;2585794;54;20073;31
2023/11/21 12:28:01;;;;;;;21.55;13.05;;;6.70;99.90;;;;;;2585332;54;20921;31
2023/11/21 12:30:39;;;;;;;15.60;7.55;;;6.60;99.90;;;;;;2585738;54;19934;31
2023/11/21 12:33:17;;;;;;;13.07;6.95;;;6.50;99.90;;;;;;2585774;54;20048;31
2023/11/21 12:35:53;;;;;;;14.77;6.37;;;6.40;99.90;;;;;;2585412;54;20933;31
2023/11/21 12:38:27;;;;;;;12.10;6.60;;;6.30;99.90;;;;;;2585276;54;20026;31
2023/11/21 12:41:02;;;;;;;12.13;6.25;;;6.20;99.90;;;;;;2585396;54;20934;31
2023/11/21 12:43:34;;;;;;;15.40;8.10;;;6.10;99.90;;;;;;2585097;54;20974;31
2023/11/21 12:46:15;;;;;;;11.68;6.63;;;6.00;99.90;;;;;;2585248;54;20116;31
2023/11/21 12:48:51;;;;;;;11.00;6.40;;;6.00;99.90;;;;;;2585650;54;20959;31
2023/11/21 12:51:25;;;;;;;12.27;6.20;;;5.90;99.90;;;;;;2604008;46;20035;31
2023/11/21 12:54:00;;;;;;;14.47;7.07;;;5.80;99.90;;;;;;2585276;54;20056;31
2023/11/21 12:56:35;;;;;;;26.20;10.05;;;5.80;99.90;;;;;;2585608;54;20043;31
2023/11/21 12:59:13;;;;;;;18.30;7.97;;;5.70;99.90;;;;;;2585789;54;22421;31
2023/11/21 13:01:56;;;;;;;12.73;6.63;;;5.70;99.90;;;;;;2585146;54;20037;31
2023/11/21 13:04:35;;;;;;;12.60;6.90;;;5.70;99.90;;;;;;2585880;54;20321;31
2023/11/21 13:07:14;;;;;;;12.07;6.65;;;5.60;99.90;;;;;;2604068;46;20783;31
2023/11/21 13:09:48;;;;;;;17.20;8.70;;;5.50;99.90;;;;;;2585378;54;20065;31
2023/11/21 13:12:27;;;;;;;48.33;23.00;;;5.50;99.90;;;;;;2601272;46;20915;31
2023/11/21 13:15:09;;;;;;;46.85;24.67;;;5.50;99.90;;;;;;2585447;54;20938;31
2023/11/21 13:17:46;;;;;;;21.45;10.55;;;5.50;99.90;;;;;;2585546;54;20838;31
2023/11/21 13:20:22;;;;;;;15.55;9.15;;;5.40;99.90;;;;;;2585306;54;20091;31
2023/11/21 13:22:59;;;;;;;17.50;10.40;;;5.40;99.90;;;;;;2585352;54;20664;31
2023/11/21 13:25:34;;;;;;;18.30;9.00;;;5.30;99.90;;;;;;2585687;54;21663;31
2023/11/21 13:28:09;;;;;;;15.65;8.25;;;5.40;99.90;;;;;;2585377;54;21029;31
2023/11/21 13:30:48;;;;;;;12.85;7.30;;;5.40;99.90;;;;;;2585479;54;20775;31
2023/11/21 13:33:27;;;;;;;15.10;7.68;;;5.40;99.90;;;;;;2585657;54;20027;31
2023/11/21 13:36:02;;;;;;;10.32;6.53;;;5.30;99.90;;;;;;2585115;54;20033;31
2023/11/21 13:38:41;;;;;;;15.33;8.27;;;5.10;99.90;;;;;;2585485;54;20030;31
2023/11/21 13:41:17;;;;;;;23.73;9.70;;;5.00;99.90;;;;;;2585586;54;20089;31
2023/11/21 13:43:58;;;;;;;16.73;8.18;;;5.00;99.90;;;;;;2585268;54;20030;31
2023/11/21 13:46:36;;;;;;;19.58;8.60;;;4.90;99.90;;;;;;2585291;54;20044;31
2023/11/21 13:49:16;;;;;;;14.83;8.23;;;4.90;99.90;;;;;;2585439;54;20027;31
2023/11/21 13:51:53;;;;;;;21.92;11.10;;;4.90;99.90;;;;;;2585405;54;20238;31